Etusivu
METAR-TAF:

METAR-TAF

Lentoasemat :

Evenes, Norja

Harstadin/Narvikin lentoasema

Leveyspiiri: 68-31N, Pituuspiiri: 016-41E, korkeus merenpinnasta: 26 m

Tämänhetkinen sää

Tämä raportti tehtiin 40 minuuttia sitten, kello 06.50 UTC
tyyntä
Lämpötila -12°C
Kosteus 92%
Ilmanpaine 984 hPa
Näkyvyys 10 km tai enemmän
Muutamia pilviä 3800 ft:n korkeudessa

METAR: ENEV 130650Z 00000KT 9999 FEW038 M12/M13 Q0984 RMK WIND 1400FT 33005KT

Aika: 08:30 (07:30 UTC)

Sääennuste

Tämä raportti tehtiin 2 tuntia ja 30 minuuttia sitten, kello 05.00 UTC
Ennuste voimassa 13. päivästä klo 06 UTC - 13. päivään klo 15 UTC
Tuuli 5 kn eri suunnista
Näkyvyys 10 km tai enemmän
Hajanaisia pilviä 4000 ft:n korkeudessa

TAF: ENEV 130500Z 1306/1315 VRB05KT 9999 SCT040

Säähavainnot ja -ennusteet yli 4000 lentoasemalta (METAR- ja TAF-raportit).

Käytössä olevat sääasemat on merkitty karttaan keltaisilla ja punaisilla pisteillä.

Aseta hiiri pisteen päälle nähdäksesi sääaseman nimen.

Klikkaa sitten nähdäksesi säähavainnot ja -ennusteet.

Kartan vaihtaminen: klikkaa mustalla rastilla varustettuja vihreitä pisteitä, niin voit zoomata sisään; viivalla varustettua vihreää pistettä, niin voit zoomata ulos tai vihreitä nuolia, niin pääset viereisille kartoille.


METAR-TAF: